Kezdőlap
METAR-TAF:

METAR-TAF

Repülőterek :

Sinop, Törökország

földrajzi szélesség: 42-00-57N, földrajzi hosszúság: 035-03-59E, magasság: 7 m

Jelenlegi meteorológiai megfigyelések

A jelentés 1 órával és 9 perccel ezelõtt készült, 12:50 UTC
Kelet-északkeleti szél 8 kt
Hőmérséklet 27°C
Páratartalom 62%
Légköri nyomás 1011 hPa
Látótávolság 10 km, vagy több
felhőtlen 1500 m magasságban, és nincs gomolyfelhõ

METAR: LTCM 161250Z 06008KT CAVOK 27/19 Q1011

Idő: 16:59 (13:59 UTC)

Előrejelzés

A jelentés 3 órával és 19 perccel ezelõtt készült, 10:40 UTC
Az előrejelzés 16-én 12 óra UTC és 16-én 21 óra UTC között érvényes
Kelet-délkeleti szél 7 kt
Látótávolság 10 km, vagy több
felhőtlen 1500 m magasságban, és nincs gomolyfelhõ

TAF: LTCM 161040Z 1612/1621 12007KT CAVOK

Meteorológiai megfigyelések és előrejelzések több, mint 4000 repülőtéren (METAR és TAF jelentéseket).

A térképen piros és sárga pontok jelzik az elérhető meteorológiai állomásokat.

Mozgassa az egeret a pont fölött, hogy megjelenjen az állomás neve.

Azután kattintson az időjárási megfigyelések és előrejelzések megtekintéséhez.

A térkép megváltoztatása: kattintson a fekete keresztel jelölt zöld gombra ráközelítéshez, a vonallal jelölt zöld gombra távolításhoz, vagy a zöld nyilakra a szomszédos térképek eléréséhez.


METAR-TAF: